KITH/ITH METAR and TAF weather

Enter ICAO airport designator
Station Type Date Time Source
KITH METAR 2020/07/08 00:56 UTC NOAA

KITH 080056Z 17007KT 10SM CLR 25/19 A3000 RMK AO2 SLP151 T02500194


Station Type Date Time Source
KITH Decoded METAR 2020/07/08 00:56 UTC NOAA

Ithaca, Ithaca Tompkins Regional Airport, NY, United States (KITH) 42-29-27N 076-27-30W
Jul 07, 2020 - 08:56 PM EDT / 2020.07.08 0056 UTC
Wind: from the S (170 degrees) at 8 MPH (7 KT):0
Visibility: 10 mile(s):0
Sky conditions: clear
Temperature: 77.0 F (25.0 C)
Dew Point: 66.9 F (19.4 C)
Relative Humidity: 71%
Pressure (altimeter): 30 in. Hg (1015 hPa)
ob: KITH 080056Z 17007KT 10SM CLR 25/19 A3000 RMK AO2 SLP151 T02500194
cycle: 1

Station Type Date Time Source
KITH TAF 2020/07/07 18:30 UTC NOAA

TAF KITH 071727Z 0718/0818 16009G16KT P6SM SCT035
FM080000 VRB04KT P6SM FEW100
FM081600 27007KT P6SM SCT040

Example: see airport list